sensor_id;sensor_type;location;lat;lon;timestamp;P1;durP1;ratioP1;P2;durP2;ratioP2
14754;SDS011;7469;50.906;6.952;2022-08-21T00:01:50;9.30;;;5.77;;
14754;SDS011;7469;50.906;6.952;2022-08-21T00:04:19;10.40;;;6.57;;
14754;SDS011;7469;50.906;6.952;2022-08-21T00:06:54;9.97;;;6.03;;
14754;SDS011;7469;50.906;6.952;2022-08-21T00:09:22;10.87;;;6.57;;
14754;SDS011;7469;50.906;6.952;2022-08-21T00:11:50;15.97;;;6.70;;
14754;SDS011;7469;50.906;6.952;2022-08-21T00:14:18;9.53;;;5.90;;
14754;SDS011;7469;50.906;6.952;2022-08-21T00:16:46;14.43;;;6.23;;
14754;SDS011;7469;50.906;6.952;2022-08-21T00:19:14;8.40;;;5.50;;
14754;SDS011;7469;50.906;6.952;2022-08-21T00:21:44;13.67;;;5.93;;
14754;SDS011;7469;50.906;6.952;2022-08-21T00:24:12;13.10;;;6.17;;
14754;SDS011;7469;50.906;6.952;2022-08-21T00:26:40;12.53;;;5.93;;
14754;SDS011;7469;50.906;6.952;2022-08-21T00:29:09;10.07;;;5.57;;
14754;SDS011;7469;50.906;6.952;2022-08-21T00:31:37;10.63;;;5.63;;
14754;SDS011;7469;50.906;6.952;2022-08-21T00:34:06;11.60;;;5.50;;
14754;SDS011;7469;50.906;6.952;2022-08-21T00:36:35;9.00;;;5.27;;
14754;SDS011;7469;50.906;6.952;2022-08-21T00:39:05;11.60;;;5.60;;
14754;SDS011;7469;50.906;6.952;2022-08-21T00:41:35;11.73;;;5.40;;
14754;SDS011;7469;50.906;6.952;2022-08-21T00:44:04;10.10;;;6.30;;
14754;SDS011;7469;50.906;6.952;2022-08-21T00:46:34;15.83;;;6.13;;
14754;SDS011;7469;50.906;6.952;2022-08-21T00:49:02;11.43;;;6.60;;
14754;SDS011;7469;50.906;6.952;2022-08-21T00:51:33;13.83;;;6.47;;
14754;SDS011;7469;50.906;6.952;2022-08-21T00:54:06;8.37;;;5.30;;
14754;SDS011;7469;50.906;6.952;2022-08-21T00:56:43;15.37;;;6.17;;
14754;SDS011;7469;50.906;6.952;2022-08-21T00:59:13;14.30;;;6.77;;
14754;SDS011;7469;50.906;6.952;2022-08-21T01:01:43;13.07;;;5.07;;
14754;SDS011;7469;50.906;6.952;2022-08-21T01:04:11;13.60;;;6.07;;
14754;SDS011;7469;50.906;6.952;2022-08-21T01:06:39;12.37;;;5.43;;
14754;SDS011;7469;50.906;6.952;2022-08-21T01:09:09;13.37;;;6.03;;
14754;SDS011;7469;50.906;6.952;2022-08-21T01:11:37;12.80;;;6.97;;
14754;SDS011;7469;50.906;6.952;2022-08-21T01:14:06;10.93;;;6.43;;
14754;SDS011;7469;50.906;6.952;2022-08-21T01:16:34;15.47;;;6.73;;
14754;SDS011;7469;50.906;6.952;2022-08-21T01:19:01;11.07;;;6.57;;
14754;SDS011;7469;50.906;6.952;2022-08-21T01:21:31;14.80;;;6.23;;
14754;SDS011;7469;50.906;6.952;2022-08-21T01:23:59;13.40;;;6.70;;
14754;SDS011;7469;50.906;6.952;2022-08-21T01:26:31;11.40;;;6.17;;
14754;SDS011;7469;50.906;6.952;2022-08-21T01:29:03;12.77;;;6.60;;
14754;SDS011;7469;50.906;6.952;2022-08-21T01:31:36;11.20;;;7.17;;
14754;SDS011;7469;50.906;6.952;2022-08-21T01:34:04;11.77;;;7.60;;
14754;SDS011;7469;50.906;6.952;2022-08-21T01:36:34;12.47;;;7.10;;
14754;SDS011;7469;50.906;6.952;2022-08-21T01:39:03;16.00;;;7.50;;
14754;SDS011;7469;50.906;6.952;2022-08-21T01:41:32;9.47;;;6.60;;
14754;SDS011;7469;50.906;6.952;2022-08-21T01:44:00;13.90;;;7.43;;
14754;SDS011;7469;50.906;6.952;2022-08-21T01:46:28;13.20;;;7.33;;
14754;SDS011;7469;50.906;6.952;2022-08-21T01:48:56;11.77;;;7.23;;
14754;SDS011;7469;50.906;6.952;2022-08-21T01:51:24;9.60;;;6.93;;
14754;SDS011;7469;50.906;6.952;2022-08-21T01:53:54;14.03;;;7.57;;
14754;SDS011;7469;50.906;6.952;2022-08-21T01:56:22;10.17;;;7.30;;
14754;SDS011;7469;50.906;6.952;2022-08-21T01:58:52;11.50;;;6.80;;
14754;SDS011;7469;50.906;6.952;2022-08-21T02:01:22;9.37;;;7.50;;
14754;SDS011;7469;50.906;6.952;2022-08-21T02:03:50;13.40;;;7.97;;
14754;SDS011;7469;50.906;6.952;2022-08-21T02:06:18;11.50;;;7.83;;
14754;SDS011;7469;50.906;6.952;2022-08-21T02:08:46;14.63;;;8.00;;
14754;SDS011;7469;50.906;6.952;2022-08-21T02:11:18;12.73;;;8.17;;
14754;SDS011;7469;50.906;6.952;2022-08-21T02:13:46;13.80;;;8.33;;
14754;SDS011;7469;50.906;6.952;2022-08-21T02:16:14;15.10;;;8.43;;
14754;SDS011;7469;50.906;6.952;2022-08-21T02:18:44;12.37;;;8.03;;
14754;SDS011;7469;50.906;6.952;2022-08-21T02:21:13;15.30;;;8.23;;
14754;SDS011;7469;50.906;6.952;2022-08-21T02:23:41;14.63;;;8.50;;
14754;SDS011;7469;50.906;6.952;2022-08-21T02:26:09;14.47;;;9.50;;
14754;SDS011;7469;50.906;6.952;2022-08-21T02:28:39;12.97;;;8.13;;
14754;SDS011;7469;50.906;6.952;2022-08-21T02:31:08;14.17;;;9.67;;
14754;SDS011;7469;50.906;6.952;2022-08-21T02:33:36;16.60;;;9.90;;
14754;SDS011;7469;50.906;6.952;2022-08-21T02:36:06;16.90;;;10.33;;
14754;SDS011;7469;50.906;6.952;2022-08-21T02:38:36;15.50;;;10.40;;
14754;SDS011;7469;50.906;6.952;2022-08-21T02:41:06;17.10;;;11.30;;
14754;SDS011;7469;50.906;6.952;2022-08-21T02:43:36;15.23;;;11.13;;
14754;SDS011;7469;50.906;6.952;2022-08-21T02:46:06;18.77;;;11.53;;
14754;SDS011;7469;50.906;6.952;2022-08-21T02:48:35;21.60;;;11.73;;
14754;SDS011;7469;50.906;6.952;2022-08-21T02:51:05;17.10;;;12.63;;
14754;SDS011;7469;50.906;6.952;2022-08-21T02:53:34;16.10;;;12.30;;
14754;SDS011;7469;50.906;6.952;2022-08-21T02:56:04;21.17;;;12.03;;
14754;SDS011;7469;50.906;6.952;2022-08-21T02:58:35;17.13;;;11.13;;
14754;SDS011;7469;50.906;6.952;2022-08-21T03:01:07;17.37;;;11.43;;
14754;SDS011;7469;50.906;6.952;2022-08-21T03:03:36;16.70;;;10.87;;
14754;SDS011;7469;50.906;6.952;2022-08-21T03:06:05;14.57;;;11.07;;
14754;SDS011;7469;50.906;6.952;2022-08-21T03:08:35;16.77;;;10.70;;
14754;SDS011;7469;50.906;6.952;2022-08-21T03:11:04;16.00;;;10.60;;
14754;SDS011;7469;50.906;6.952;2022-08-21T03:13:35;17.20;;;11.20;;
14754;SDS011;7469;50.906;6.952;2022-08-21T03:16:03;15.37;;;9.90;;
14754;SDS011;7469;50.906;6.952;2022-08-21T03:18:37;15.97;;;9.90;;
14754;SDS011;7469;50.906;6.952;2022-08-21T03:21:05;18.67;;;9.37;;
14754;SDS011;7469;50.906;6.952;2022-08-21T03:23:34;16.73;;;9.30;;
14754;SDS011;7469;50.906;6.952;2022-08-21T03:26:02;14.50;;;8.60;;
14754;SDS011;7469;50.906;6.952;2022-08-21T03:28:33;12.50;;;8.90;;
14754;SDS011;7469;50.906;6.952;2022-08-21T03:31:01;12.37;;;8.17;;
14754;SDS011;7469;50.906;6.952;2022-08-21T03:33:29;14.27;;;9.27;;
14754;SDS011;7469;50.906;6.952;2022-08-21T03:36:00;15.77;;;9.20;;
14754;SDS011;7469;50.906;6.952;2022-08-21T03:38:30;15.57;;;8.80;;
14754;SDS011;7469;50.906;6.952;2022-08-21T03:41:01;14.07;;;7.83;;
14754;SDS011;7469;50.906;6.952;2022-08-21T03:43:30;14.83;;;9.03;;
14754;SDS011;7469;50.906;6.952;2022-08-21T03:45:58;11.97;;;8.13;;
14754;SDS011;7469;50.906;6.952;2022-08-21T03:48:30;14.27;;;9.20;;
14754;SDS011;7469;50.906;6.952;2022-08-21T03:50:59;13.60;;;7.93;;
14754;SDS011;7469;50.906;6.952;2022-08-21T03:53:28;10.83;;;7.50;;
14754;SDS011;7469;50.906;6.952;2022-08-21T03:55:56;12.90;;;8.07;;
14754;SDS011;7469;50.906;6.952;2022-08-21T03:58:25;11.67;;;7.90;;
14754;SDS011;7469;50.906;6.952;2022-08-21T04:00:55;17.33;;;8.10;;
14754;SDS011;7469;50.906;6.952;2022-08-21T04:03:25;13.33;;;8.00;;
14754;SDS011;7469;50.906;6.952;2022-08-21T04:05:54;12.63;;;7.93;;
14754;SDS011;7469;50.906;6.952;2022-08-21T04:08:23;10.97;;;7.83;;
14754;SDS011;7469;50.906;6.952;2022-08-21T04:10:52;17.10;;;8.50;;
14754;SDS011;7469;50.906;6.952;2022-08-21T04:13:22;13.87;;;8.40;;
14754;SDS011;7469;50.906;6.952;2022-08-21T04:15:50;11.23;;;8.20;;
14754;SDS011;7469;50.906;6.952;2022-08-21T04:18:18;14.23;;;7.80;;
14754;SDS011;7469;50.906;6.952;2022-08-21T04:20:48;16.47;;;8.60;;
14754;SDS011;7469;50.906;6.952;2022-08-21T04:23:18;12.23;;;7.60;;
14754;SDS011;7469;50.906;6.952;2022-08-21T04:25:52;13.23;;;7.33;;
14754;SDS011;7469;50.906;6.952;2022-08-21T04:28:22;16.13;;;7.83;;
14754;SDS011;7469;50.906;6.952;2022-08-21T04:30:55;12.00;;;7.63;;
14754;SDS011;7469;50.906;6.952;2022-08-21T04:33:23;13.87;;;7.47;;
14754;SDS011;7469;50.906;6.952;2022-08-21T04:35:52;12.50;;;7.60;;
14754;SDS011;7469;50.906;6.952;2022-08-21T04:38:20;14.13;;;7.27;;
14754;SDS011;7469;50.906;6.952;2022-08-21T04:40:49;13.67;;;7.90;;
14754;SDS011;7469;50.906;6.952;2022-08-21T04:43:19;11.60;;;7.67;;
14754;SDS011;7469;50.906;6.952;2022-08-21T04:45:50;11.07;;;7.23;;
14754;SDS011;7469;50.906;6.952;2022-08-21T04:48:21;13.93;;;7.27;;
14754;SDS011;7469;50.906;6.952;2022-08-21T04:50:52;13.40;;;8.00;;
14754;SDS011;7469;50.906;6.952;2022-08-21T04:53:24;15.53;;;7.90;;
14754;SDS011;7469;50.906;6.952;2022-08-21T04:56:00;16.67;;;8.03;;
14754;SDS011;7469;50.906;6.952;2022-08-21T04:58:31;13.77;;;8.00;;
14754;SDS011;7469;50.906;6.952;2022-08-21T05:01:00;12.07;;;7.63;;
14754;SDS011;7469;50.906;6.952;2022-08-21T05:03:32;11.77;;;7.53;;
14754;SDS011;7469;50.906;6.952;2022-08-21T05:06:02;11.83;;;6.93;;
14754;SDS011;7469;50.906;6.952;2022-08-21T05:08:32;10.23;;;7.37;;
14754;SDS011;7469;50.906;6.952;2022-08-21T05:11:03;10.73;;;7.43;;
14754;SDS011;7469;50.906;6.952;2022-08-21T05:13:31;10.67;;;7.33;;
14754;SDS011;7469;50.906;6.952;2022-08-21T05:15:59;12.60;;;7.17;;
14754;SDS011;7469;50.906;6.952;2022-08-21T05:18:27;13.03;;;8.10;;
14754;SDS011;7469;50.906;6.952;2022-08-21T05:20:55;9.77;;;7.20;;
14754;SDS011;7469;50.906;6.952;2022-08-21T05:23:23;12.03;;;7.13;;
14754;SDS011;7469;50.906;6.952;2022-08-21T05:25:52;11.70;;;7.80;;
14754;SDS011;7469;50.906;6.952;2022-08-21T05:28:22;12.37;;;7.43;;
14754;SDS011;7469;50.906;6.952;2022-08-21T05:30:52;13.37;;;7.77;;
14754;SDS011;7469;50.906;6.952;2022-08-21T05:33:20;11.80;;;7.87;;
14754;SDS011;7469;50.906;6.952;2022-08-21T05:35:49;13.00;;;7.80;;
14754;SDS011;7469;50.906;6.952;2022-08-21T05:38:17;14.27;;;7.77;;
14754;SDS011;7469;50.906;6.952;2022-08-21T05:40:45;13.47;;;7.17;;
14754;SDS011;7469;50.906;6.952;2022-08-21T05:43:13;12.87;;;7.33;;
14754;SDS011;7469;50.906;6.952;2022-08-21T05:45:43;12.73;;;7.50;;
14754;SDS011;7469;50.906;6.952;2022-08-21T05:48:12;12.93;;;7.17;;
14754;SDS011;7469;50.906;6.952;2022-08-21T05:50:42;12.63;;;7.13;;
14754;SDS011;7469;50.906;6.952;2022-08-21T05:53:11;10.27;;;6.23;;
14754;SDS011;7469;50.906;6.952;2022-08-21T05:55:40;13.07;;;7.40;;
14754;SDS011;7469;50.906;6.952;2022-08-21T05:58:12;9.73;;;6.43;;
14754;SDS011;7469;50.906;6.952;2022-08-21T06:00:42;12.10;;;7.20;;
14754;SDS011;7469;50.906;6.952;2022-08-21T06:03:12;13.87;;;7.50;;
14754;SDS011;7469;50.906;6.952;2022-08-21T06:05:41;13.80;;;7.43;;
14754;SDS011;7469;50.906;6.952;2022-08-21T06:08:09;9.63;;;6.83;;
14754;SDS011;7469;50.906;6.952;2022-08-21T06:10:37;16.50;;;8.67;;
14754;SDS011;7469;50.906;6.952;2022-08-21T06:13:05;15.10;;;9.07;;
14754;SDS011;7469;50.906;6.952;2022-08-21T06:15:34;11.33;;;8.30;;
14754;SDS011;7469;50.906;6.952;2022-08-21T06:18:03;12.27;;;8.50;;
14754;SDS011;7469;50.906;6.952;2022-08-21T06:20:32;9.33;;;6.67;;
14754;SDS011;7469;50.906;6.952;2022-08-21T06:23:00;12.87;;;7.33;;
14754;SDS011;7469;50.906;6.952;2022-08-21T06:25:29;11.57;;;7.20;;
14754;SDS011;7469;50.906;6.952;2022-08-21T06:28:01;11.77;;;7.03;;
14754;SDS011;7469;50.906;6.952;2022-08-21T06:30:30;17.20;;;6.97;;
14754;SDS011;7469;50.906;6.952;2022-08-21T06:32:58;8.87;;;6.93;;
14754;SDS011;7469;50.906;6.952;2022-08-21T06:35:28;8.50;;;6.30;;
14754;SDS011;7469;50.906;6.952;2022-08-21T06:37:57;12.67;;;7.30;;
14754;SDS011;7469;50.906;6.952;2022-08-21T06:40:25;10.70;;;7.10;;
14754;SDS011;7469;50.906;6.952;2022-08-21T06:42:55;11.47;;;6.63;;
14754;SDS011;7469;50.906;6.952;2022-08-21T06:45:24;11.87;;;6.10;;
14754;SDS011;7469;50.906;6.952;2022-08-21T06:47:57;8.27;;;6.03;;
14754;SDS011;7469;50.906;6.952;2022-08-21T06:50:25;13.17;;;6.23;;
14754;SDS011;7469;50.906;6.952;2022-08-21T06:53:00;10.30;;;5.70;;
14754;SDS011;7469;50.906;6.952;2022-08-21T06:55:29;14.50;;;6.10;;
14754;SDS011;7469;50.906;6.952;2022-08-21T06:57:57;12.57;;;5.87;;
14754;SDS011;7469;50.906;6.952;2022-08-21T07:00:26;11.13;;;6.03;;
14754;SDS011;7469;50.906;6.952;2022-08-21T07:02:54;6.97;;;4.80;;
14754;SDS011;7469;50.906;6.952;2022-08-21T07:05:24;12.03;;;5.13;;
14754;SDS011;7469;50.906;6.952;2022-08-21T07:07:54;8.47;;;4.73;;
14754;SDS011;7469;50.906;6.952;2022-08-21T07:10:23;7.43;;;4.67;;
14754;SDS011;7469;50.906;6.952;2022-08-21T07:12:51;10.87;;;5.50;;
14754;SDS011;7469;50.906;6.952;2022-08-21T07:15:26;10.53;;;4.23;;
14754;SDS011;7469;50.906;6.952;2022-08-21T07:17:56;8.30;;;4.27;;
14754;SDS011;7469;50.906;6.952;2022-08-21T07:20:24;9.17;;;4.57;;
14754;SDS011;7469;50.906;6.952;2022-08-21T07:22:52;9.50;;;4.30;;
14754;SDS011;7469;50.906;6.952;2022-08-21T07:25:23;8.40;;;3.97;;
14754;SDS011;7469;50.906;6.952;2022-08-21T07:27:51;11.60;;;4.03;;
14754;SDS011;7469;50.906;6.952;2022-08-21T07:30:19;7.73;;;4.13;;
14754;SDS011;7469;50.906;6.952;2022-08-21T07:32:47;6.80;;;3.87;;
14754;SDS011;7469;50.906;6.952;2022-08-21T07:35:16;5.83;;;3.80;;
14754;SDS011;7469;50.906;6.952;2022-08-21T07:37:45;7.17;;;3.10;;
14754;SDS011;7469;50.906;6.952;2022-08-21T07:40:14;9.50;;;3.40;;
14754;SDS011;7469;50.906;6.952;2022-08-21T07:42:45;7.33;;;3.17;;
14754;SDS011;7469;50.906;6.952;2022-08-21T07:45:16;7.60;;;2.77;;
14754;SDS011;7469;50.906;6.952;2022-08-21T07:47:46;3.80;;;2.27;;
14754;SDS011;7469;50.906;6.952;2022-08-21T07:50:16;9.70;;;2.80;;
14754;SDS011;7469;50.906;6.952;2022-08-21T07:52:45;7.30;;;2.47;;
14754;SDS011;7469;50.906;6.952;2022-08-21T07:55:16;6.30;;;2.37;;
14754;SDS011;7469;50.906;6.952;2022-08-21T07:57:46;10.60;;;2.80;;
14754;SDS011;7469;50.906;6.952;2022-08-21T08:00:15;6.63;;;2.83;;
14754;SDS011;7469;50.906;6.952;2022-08-21T08:02:46;6.43;;;2.17;;
14754;SDS011;7469;50.906;6.952;2022-08-21T08:05:17;8.30;;;2.20;;
14754;SDS011;7469;50.906;6.952;2022-08-21T08:07:47;10.73;;;2.47;;
14754;SDS011;7469;50.906;6.952;2022-08-21T08:10:16;7.50;;;2.33;;
14754;SDS011;7469;50.906;6.952;2022-08-21T08:12:45;9.57;;;2.37;;
14754;SDS011;7469;50.906;6.952;2022-08-21T08:15:14;7.13;;;2.43;;
14754;SDS011;7469;50.906;6.952;2022-08-21T08:17:46;5.33;;;2.07;;
14754;SDS011;7469;50.906;6.952;2022-08-21T08:20:15;8.33;;;2.30;;
14754;SDS011;7469;50.906;6.952;2022-08-21T08:22:44;5.27;;;2.03;;
14754;SDS011;7469;50.906;6.952;2022-08-21T08:25:17;9.53;;;2.30;;
14754;SDS011;7469;50.906;6.952;2022-08-21T08:27:46;8.20;;;2.40;;
14754;SDS011;7469;50.906;6.952;2022-08-21T08:30:15;7.47;;;2.30;;
14754;SDS011;7469;50.906;6.952;2022-08-21T08:32:46;8.87;;;2.57;;
14754;SDS011;7469;50.906;6.952;2022-08-21T08:35:15;6.40;;;2.20;;
14754;SDS011;7469;50.906;6.952;2022-08-21T08:37:48;7.57;;;2.73;;
14754;SDS011;7469;50.906;6.952;2022-08-21T08:40:20;8.97;;;2.20;;
14754;SDS011;7469;50.906;6.952;2022-08-21T08:42:55;5.97;;;2.23;;
14754;SDS011;7469;50.906;6.952;2022-08-21T08:45:23;6.90;;;2.23;;
14754;SDS011;7469;50.906;6.952;2022-08-21T08:47:53;4.77;;;2.03;;
14754;SDS011;7469;50.906;6.952;2022-08-21T08:50:28;10.10;;;2.63;;
14754;SDS011;7469;50.906;6.952;2022-08-21T08:53:14;6.30;;;2.10;;
14754;SDS011;7469;50.906;6.952;2022-08-21T08:55:45;9.43;;;2.70;;
14754;SDS011;7469;50.906;6.952;2022-08-21T08:58:16;16.97;;;2.70;;
14754;SDS011;7469;50.906;6.952;2022-08-21T09:00:47;12.80;;;2.20;;
14754;SDS011;7469;50.906;6.952;2022-08-21T09:03:18;6.43;;;2.17;;
14754;SDS011;7469;50.906;6.952;2022-08-21T09:05:48;9.07;;;2.60;;
14754;SDS011;7469;50.906;6.952;2022-08-21T09:11:19;11.57;;;2.53;;
14754;SDS011;7469;50.906;6.952;2022-08-21T09:13:55;7.83;;;2.30;;
14754;SDS011;7469;50.906;6.952;2022-08-21T09:16:35;12.87;;;2.73;;
14754;SDS011;7469;50.906;6.952;2022-08-21T09:19:11;8.43;;;2.23;;
14754;SDS011;7469;50.906;6.952;2022-08-21T09:21:52;15.20;;;2.93;;
14754;SDS011;7469;50.906;6.952;2022-08-21T09:24:31;12.77;;;2.57;;
14754;SDS011;7469;50.906;6.952;2022-08-21T09:27:06;6.20;;;2.40;;
14754;SDS011;7469;50.906;6.952;2022-08-21T09:29:37;8.87;;;2.40;;
14754;SDS011;7469;50.906;6.952;2022-08-21T09:32:09;5.13;;;2.17;;
14754;SDS011;7469;50.906;6.952;2022-08-21T09:34:54;11.13;;;2.60;;
14754;SDS011;7469;50.906;6.952;2022-08-21T09:37:27;7.60;;;2.30;;
14754;SDS011;7469;50.906;6.952;2022-08-21T09:39:57;7.10;;;2.97;;
14754;SDS011;7469;50.906;6.952;2022-08-21T09:42:29;5.23;;;2.50;;
14754;SDS011;7469;50.906;6.952;2022-08-21T09:45:06;7.03;;;2.60;;
14754;SDS011;7469;50.906;6.952;2022-08-21T09:47:37;7.93;;;2.72;;
14754;SDS011;7469;50.906;6.952;2022-08-21T09:50:10;7.93;;;2.80;;
14754;SDS011;7469;50.906;6.952;2022-08-21T09:52:48;5.55;;;2.40;;
14754;SDS011;7469;50.906;6.952;2022-08-21T09:55:20;5.38;;;2.35;;
14754;SDS011;7469;50.906;6.952;2022-08-21T09:58:12;7.88;;;2.55;;
14754;SDS011;7469;50.906;6.952;2022-08-21T10:00:41;6.97;;;2.65;;
14754;SDS011;7469;50.906;6.952;2022-08-21T10:03:11;5.50;;;2.42;;
14754;SDS011;7469;50.906;6.952;2022-08-21T10:05:50;6.25;;;2.42;;
14754;SDS011;7469;50.906;6.952;2022-08-21T10:08:20;7.53;;;2.53;;
14754;SDS011;7469;50.906;6.952;2022-08-21T10:10:50;11.65;;;3.30;;
14754;SDS011;7469;50.906;6.952;2022-08-21T10:13:24;8.23;;;2.90;;
14754;SDS011;7469;50.906;6.952;2022-08-21T10:16:05;5.18;;;2.40;;
14754;SDS011;7469;50.906;6.952;2022-08-21T10:18:44;6.97;;;2.75;;
14754;SDS011;7469;50.906;6.952;2022-08-21T10:21:22;7.20;;;2.33;;
14754;SDS011;7469;50.906;6.952;2022-08-21T10:23:58;7.68;;;3.47;;
14754;SDS011;7469;50.906;6.952;2022-08-21T10:26:37;5.85;;;2.22;;
14754;SDS011;7469;50.906;6.952;2022-08-21T10:29:18;4.55;;;2.40;;
14754;SDS011;7469;50.906;6.952;2022-08-21T10:32:00;7.82;;;2.30;;
14754;SDS011;7469;50.906;6.952;2022-08-21T10:34:52;5.82;;;2.60;;
14754;SDS011;7469;50.906;6.952;2022-08-21T10:37:27;5.60;;;2.60;;
14754;SDS011;7469;50.906;6.952;2022-08-21T10:40:12;5.20;;;2.30;;
14754;SDS011;7469;50.906;6.952;2022-08-21T10:42:49;3.92;;;2.30;;
14754;SDS011;7469;50.906;6.952;2022-08-21T10:45:32;8.13;;;2.42;;
14754;SDS011;7469;50.906;6.952;2022-08-21T10:48:13;6.40;;;2.80;;
14754;SDS011;7469;50.906;6.952;2022-08-21T10:50:59;7.15;;;2.72;;
14754;SDS011;7469;50.906;6.952;2022-08-21T10:53:41;7.68;;;2.33;;
14754;SDS011;7469;50.906;6.952;2022-08-21T10:56:19;6.85;;;2.70;;
14754;SDS011;7469;50.906;6.952;2022-08-21T10:58:56;5.85;;;2.30;;
14754;SDS011;7469;50.906;6.952;2022-08-21T11:01:34;7.40;;;2.80;;
14754;SDS011;7469;50.906;6.952;2022-08-21T11:04:11;6.60;;;2.85;;
14754;SDS011;7469;50.906;6.952;2022-08-21T11:06:43;4.53;;;2.30;;
14754;SDS011;7469;50.906;6.952;2022-08-21T11:09:17;4.45;;;2.30;;
14754;SDS011;7469;50.906;6.952;2022-08-21T11:11:47;5.60;;;2.65;;
14754;SDS011;7469;50.906;6.952;2022-08-21T11:14:39;7.10;;;2.30;;
14754;SDS011;7469;50.906;6.952;2022-08-21T11:17:18;4.93;;;2.03;;
14754;SDS011;7469;50.906;6.952;2022-08-21T11:19:52;3.58;;;1.73;;
14754;SDS011;7469;50.906;6.952;2022-08-21T11:22:28;5.90;;;2.20;;
14754;SDS011;7469;50.906;6.952;2022-08-21T11:25:06;7.43;;;2.50;;
14754;SDS011;7469;50.906;6.952;2022-08-21T11:27:39;5.78;;;2.65;;
14754;SDS011;7469;50.906;6.952;2022-08-21T11:30:11;5.95;;;2.13;;
14754;SDS011;7469;50.906;6.952;2022-08-21T11:32:45;5.68;;;2.17;;
14754;SDS011;7469;50.906;6.952;2022-08-21T11:35:28;5.90;;;2.17;;
14754;SDS011;7469;50.906;6.952;2022-08-21T11:38:07;5.63;;;2.05;;
14754;SDS011;7469;50.906;6.952;2022-08-21T11:40:49;6.95;;;1.85;;
14754;SDS011;7469;50.906;6.952;2022-08-21T11:43:29;4.55;;;2.10;;
14754;SDS011;7469;50.906;6.952;2022-08-21T11:46:11;5.07;;;1.95;;
14754;SDS011;7469;50.906;6.952;2022-08-21T11:48:51;5.47;;;2.00;;
14754;SDS011;7469;50.906;6.952;2022-08-21T11:51:39;4.95;;;1.90;;
14754;SDS011;7469;50.906;6.952;2022-08-21T11:54:14;5.83;;;2.90;;
14754;SDS011;7469;50.906;6.952;2022-08-21T11:56:50;3.07;;;1.93;;
14754;SDS011;7469;50.906;6.952;2022-08-21T11:59:26;7.03;;;3.80;;
14754;SDS011;7469;50.906;6.952;2022-08-21T12:02:06;5.10;;;2.40;;
14754;SDS011;7469;50.906;6.952;2022-08-21T12:04:43;4.47;;;2.10;;
14754;SDS011;7469;50.906;6.952;2022-08-21T12:07:15;5.77;;;2.13;;
14754;SDS011;7469;50.906;6.952;2022-08-21T12:09:52;5.33;;;2.10;;
14754;SDS011;7469;50.906;6.952;2022-08-21T12:12:23;6.87;;;2.13;;
14754;SDS011;7469;50.906;6.952;2022-08-21T12:15:03;7.97;;;2.07;;
14754;SDS011;7469;50.906;6.952;2022-08-21T12:17:40;7.47;;;2.00;;
14754;SDS011;7469;50.906;6.952;2022-08-21T12:20:26;6.63;;;2.23;;
14754;SDS011;7469;50.906;6.952;2022-08-21T12:23:24;7.53;;;2.23;;
14754;SDS011;7469;50.906;6.952;2022-08-21T12:26:00;5.50;;;1.80;;
14754;SDS011;7469;50.906;6.952;2022-08-21T12:28:41;5.17;;;2.30;;
14754;SDS011;7469;50.906;6.952;2022-08-21T12:31:17;7.43;;;2.00;;
14754;SDS011;7469;50.906;6.952;2022-08-21T12:33:52;4.50;;;2.00;;
14754;SDS011;7469;50.906;6.952;2022-08-21T12:36:24;7.17;;;2.10;;
14754;SDS011;7469;50.906;6.952;2022-08-21T12:39:10;3.73;;;1.67;;
14754;SDS011;7469;50.906;6.952;2022-08-21T12:41:44;8.43;;;2.13;;
14754;SDS011;7469;50.906;6.952;2022-08-21T12:44:20;6.77;;;1.90;;
14754;SDS011;7469;50.906;6.952;2022-08-21T12:46:51;3.97;;;1.40;;
14754;SDS011;7469;50.906;6.952;2022-08-21T12:49:24;6.97;;;2.17;;
14754;SDS011;7469;50.906;6.952;2022-08-21T12:52:00;5.03;;;1.73;;
14754;SDS011;7469;50.906;6.952;2022-08-21T12:54:37;6.17;;;2.27;;
14754;SDS011;7469;50.906;6.952;2022-08-21T12:57:08;4.30;;;1.90;;
14754;SDS011;7469;50.906;6.952;2022-08-21T12:59:45;5.37;;;2.17;;
14754;SDS011;7469;50.906;6.952;2022-08-21T13:02:19;5.10;;;2.03;;
14754;SDS011;7469;50.906;6.952;2022-08-21T13:04:50;2.57;;;1.53;;
14754;SDS011;7469;50.906;6.952;2022-08-21T13:07:25;4.53;;;1.80;;
14754;SDS011;7469;50.906;6.952;2022-08-21T13:09:57;4.60;;;1.73;;
14754;SDS011;7469;50.906;6.952;2022-08-21T13:12:26;7.47;;;2.17;;
14754;SDS011;7469;50.906;6.952;2022-08-21T13:14:58;5.27;;;1.90;;
14754;SDS011;7469;50.906;6.952;2022-08-21T13:17:35;6.57;;;1.90;;
14754;SDS011;7469;50.906;6.952;2022-08-21T13:20:07;5.27;;;2.00;;
14754;SDS011;7469;50.906;6.952;2022-08-21T13:22:41;7.27;;;2.33;;
14754;SDS011;7469;50.906;6.952;2022-08-21T13:25:10;5.60;;;2.20;;
14754;SDS011;7469;50.906;6.952;2022-08-21T13:27:41;4.63;;;2.40;;
14754;SDS011;7469;50.906;6.952;2022-08-21T13:30:11;5.20;;;2.00;;
14754;SDS011;7469;50.906;6.952;2022-08-21T13:32:42;9.53;;;2.30;;
14754;SDS011;7469;50.906;6.952;2022-08-21T13:35:15;7.03;;;1.70;;
14754;SDS011;7469;50.906;6.952;2022-08-21T13:37:47;7.13;;;1.90;;
14754;SDS011;7469;50.906;6.952;2022-08-21T13:40:32;6.07;;;2.30;;
14754;SDS011;7469;50.906;6.952;2022-08-21T13:43:13;7.43;;;2.00;;
14754;SDS011;7469;50.906;6.952;2022-08-21T13:45:47;4.90;;;2.10;;
14754;SDS011;7469;50.906;6.952;2022-08-21T13:48:17;5.60;;;1.90;;
14754;SDS011;7469;50.906;6.952;2022-08-21T13:50:46;5.30;;;2.00;;
14754;SDS011;7469;50.906;6.952;2022-08-21T13:53:23;6.20;;;2.37;;
14754;SDS011;7469;50.906;6.952;2022-08-21T13:55:56;7.53;;;2.47;;
14754;SDS011;7469;50.906;6.952;2022-08-21T13:58:27;6.07;;;1.90;;
14754;SDS011;7469;50.906;6.952;2022-08-21T14:00:56;5.90;;;2.07;;
14754;SDS011;7469;50.906;6.952;2022-08-21T14:03:32;3.80;;;1.90;;
14754;SDS011;7469;50.906;6.952;2022-08-21T14:06:01;4.93;;;2.03;;
14754;SDS011;7469;50.906;6.952;2022-08-21T14:08:39;6.03;;;1.93;;
14754;SDS011;7469;50.906;6.952;2022-08-21T14:11:10;6.47;;;1.70;;
14754;SDS011;7469;50.906;6.952;2022-08-21T14:13:40;7.07;;;2.63;;
14754;SDS011;7469;50.906;6.952;2022-08-21T14:16:14;6.57;;;1.87;;
14754;SDS011;7469;50.906;6.952;2022-08-21T14:18:46;6.90;;;2.07;;
14754;SDS011;7469;50.906;6.952;2022-08-21T14:21:26;4.63;;;1.70;;
14754;SDS011;7469;50.906;6.952;2022-08-21T14:24:00;5.37;;;2.17;;
14754;SDS011;7469;50.906;6.952;2022-08-21T14:26:31;5.50;;;2.20;;
14754;SDS011;7469;50.906;6.952;2022-08-21T14:29:05;5.03;;;2.33;;
14754;SDS011;7469;50.906;6.952;2022-08-21T14:31:36;8.30;;;2.23;;
14754;SDS011;7469;50.906;6.952;2022-08-21T14:34:09;4.37;;;2.30;;
14754;SDS011;7469;50.906;6.952;2022-08-21T14:36:45;6.83;;;2.50;;
14754;SDS011;7469;50.906;6.952;2022-08-21T14:39:15;4.63;;;2.03;;
14754;SDS011;7469;50.906;6.952;2022-08-21T14:41:44;7.27;;;2.10;;
14754;SDS011;7469;50.906;6.952;2022-08-21T14:44:14;9.03;;;2.00;;
14754;SDS011;7469;50.906;6.952;2022-08-21T14:46:44;4.37;;;1.87;;
14754;SDS011;7469;50.906;6.952;2022-08-21T14:49:22;4.27;;;1.80;;
14754;SDS011;7469;50.906;6.952;2022-08-21T14:51:54;5.93;;;2.07;;
14754;SDS011;7469;50.906;6.952;2022-08-21T14:54:26;7.10;;;1.80;;
14754;SDS011;7469;50.906;6.952;2022-08-21T14:56:57;2.97;;;1.60;;
14754;SDS011;7469;50.906;6.952;2022-08-21T14:59:28;4.80;;;1.80;;
14754;SDS011;7469;50.906;6.952;2022-08-21T15:01:58;4.10;;;1.83;;
14754;SDS011;7469;50.906;6.952;2022-08-21T15:04:26;3.20;;;1.80;;
14754;SDS011;7469;50.906;6.952;2022-08-21T15:06:54;5.27;;;2.00;;
14754;SDS011;7469;50.906;6.952;2022-08-21T15:09:23;4.73;;;1.77;;
14754;SDS011;7469;50.906;6.952;2022-08-21T15:11:52;4.63;;;1.80;;
14754;SDS011;7469;50.906;6.952;2022-08-21T15:14:24;5.37;;;1.70;;
14754;SDS011;7469;50.906;6.952;2022-08-21T15:16:54;5.63;;;1.83;;
14754;SDS011;7469;50.906;6.952;2022-08-21T15:19:22;5.80;;;1.83;;
14754;SDS011;7469;50.906;6.952;2022-08-21T15:21:52;4.17;;;1.80;;
14754;SDS011;7469;50.906;6.952;2022-08-21T15:24:21;5.67;;;2.00;;
14754;SDS011;7469;50.906;6.952;2022-08-21T15:26:49;3.57;;;1.70;;